createdAt,value
2023-01-10T00:00:11.515Z,7.97
2023-01-10T00:02:40.757Z,7.80
2023-01-10T00:05:10.710Z,6.85
2023-01-10T00:07:39.945Z,6.78
2023-01-10T00:10:11.872Z,9.00
2023-01-10T00:12:57.936Z,9.00
2023-01-10T00:15:27.209Z,9.15
2023-01-10T00:17:56.468Z,8.45
2023-01-10T00:20:25.672Z,6.20
2023-01-10T00:22:54.954Z,7.20
2023-01-10T00:25:26.404Z,5.57
2023-01-10T00:28:02.380Z,8.13
2023-01-10T00:30:32.026Z,6.03
2023-01-10T00:33:01.882Z,4.32
2023-01-10T00:35:30.959Z,6.18
2023-01-10T00:38:03.521Z,4.82
2023-01-10T00:40:34.369Z,8.43
2023-01-10T00:43:20.735Z,5.82
2023-01-10T00:45:50.127Z,6.32
2023-01-10T00:48:19.456Z,4.57
2023-01-10T00:50:48.594Z,3.50
2023-01-10T00:53:17.894Z,5.80
2023-01-10T00:55:48.619Z,5.55
2023-01-10T00:58:18.795Z,6.65
2023-01-10T01:00:50.207Z,6.68
2023-01-10T01:03:23.667Z,5.28
2023-01-10T01:05:52.889Z,5.05
2023-01-10T01:08:22.567Z,4.68
2023-01-10T01:10:53.291Z,7.55
2023-01-10T01:13:23.824Z,3.47
2023-01-10T01:15:53.097Z,5.63
2023-01-10T01:18:23.425Z,5.10
2023-01-10T01:20:56.681Z,5.65
2023-01-10T01:23:26.392Z,4.30
2023-01-10T01:25:57.657Z,3.95
2023-01-10T01:28:27.122Z,7.20
2023-01-10T01:30:56.269Z,6.38
2023-01-10T01:33:25.823Z,2.30
2023-01-10T01:35:54.937Z,6.05
2023-01-10T01:38:24.031Z,2.55
2023-01-10T01:40:53.201Z,3.67
2023-01-10T01:43:27.629Z,4.13
2023-01-10T01:45:57.823Z,3.55
2023-01-10T01:48:35.649Z,2.72
2023-01-10T01:51:09.656Z,5.85
2023-01-10T01:53:45.207Z,2.22
2023-01-10T01:56:18.390Z,6.05
2023-01-10T01:58:56.692Z,5.43
2023-01-10T02:01:26.261Z,4.97
2023-01-10T02:04:00.491Z,6.43
2023-01-10T02:06:29.757Z,4.63
2023-01-10T02:09:05.302Z,3.72
2023-01-10T02:11:34.383Z,7.10
2023-01-10T02:14:07.661Z,5.90
2023-01-10T02:16:36.772Z,4.72
2023-01-10T02:19:10.793Z,3.60
2023-01-10T02:22:11.237Z,7.03
2023-01-10T02:25:01.080Z,5.88
2023-01-10T02:27:39.401Z,6.60
2023-01-10T02:30:38.362Z,6.72
2023-01-10T02:33:16.332Z,7.32
2023-01-10T02:36:07.976Z,6.45
2023-01-10T02:38:54.800Z,6.53
2023-01-10T02:41:33.053Z,3.60
2023-01-10T02:44:09.347Z,4.10
2023-01-10T02:46:41.027Z,7.68
2023-01-10T02:49:11.657Z,5.07
2023-01-10T02:51:40.838Z,3.28
2023-01-10T02:54:14.696Z,4.63
2023-01-10T02:57:14.228Z,6.30
2023-01-10T03:00:17.281Z,4.47
2023-01-10T03:03:01.669Z,9.05
2023-01-10T03:05:45.055Z,4.93
2023-01-10T03:08:27.332Z,7.43
2023-01-10T03:11:00.559Z,6.78
2023-01-10T03:13:36.786Z,7.13
2023-01-10T03:16:09.991Z,4.10
2023-01-10T03:18:44.640Z,12.02
2023-01-10T03:21:16.421Z,2.70
2023-01-10T03:23:47.551Z,3.70
2023-01-10T03:26:22.582Z,5.28
2023-01-10T03:28:58.348Z,5.60
2023-01-10T03:31:33.875Z,3.38
2023-01-10T03:34:03.373Z,4.15
2023-01-10T03:36:39.176Z,4.82
2023-01-10T03:39:19.844Z,2.10
2023-01-10T03:41:52.619Z,3.38
2023-01-10T03:44:44.202Z,2.30
2023-01-10T03:47:20.167Z,6.45
2023-01-10T03:49:51.969Z,3.08
2023-01-10T03:52:23.380Z,5.57
2023-01-10T03:54:54.427Z,3.10
2023-01-10T03:57:26.136Z,6.47
2023-01-10T03:59:58.431Z,5.22
2023-01-10T04:02:29.472Z,6.50
2023-01-10T04:04:59.476Z,6.20
2023-01-10T04:07:30.260Z,3.85
2023-01-10T04:09:59.636Z,4.30
2023-01-10T04:12:29.038Z,7.38
2023-01-10T04:14:58.279Z,5.50
2023-01-10T04:17:27.559Z,4.20
2023-01-10T04:19:56.944Z,2.05
2023-01-10T04:22:26.225Z,4.68
2023-01-10T04:24:56.972Z,7.63
2023-01-10T04:27:26.176Z,7.07
2023-01-10T04:29:55.456Z,5.57
2023-01-10T04:32:24.721Z,8.85
2023-01-10T04:34:54.337Z,6.18
2023-01-10T04:37:23.565Z,5.63
2023-01-10T04:39:52.765Z,6.95
2023-01-10T04:42:23.870Z,5.72
2023-01-10T04:44:53.229Z,7.30
2023-01-10T04:47:22.445Z,7.22
2023-01-10T04:49:51.684Z,7.40
2023-01-10T04:52:20.998Z,7.05
2023-01-10T04:54:50.251Z,3.45
2023-01-10T04:57:19.567Z,5.15
2023-01-10T04:59:50.340Z,4.75
2023-01-10T05:02:19.789Z,4.75
2023-01-10T05:04:49.175Z,4.85
2023-01-10T05:07:18.419Z,5.75
2023-01-10T05:09:47.658Z,4.68
2023-01-10T05:12:17.230Z,2.38
2023-01-10T05:14:46.554Z,6.07
2023-01-10T05:17:17.352Z,2.30
2023-01-10T05:19:46.928Z,3.72
2023-01-10T05:22:17.792Z,4.15
2023-01-10T05:24:46.904Z,4.20
2023-01-10T05:27:16.164Z,2.63
2023-01-10T05:29:45.463Z,1.75
2023-01-10T05:32:16.065Z,4.28
2023-01-10T05:34:45.756Z,3.22
2023-01-10T05:37:14.907Z,4.07
2023-01-10T05:39:44.138Z,2.63
2023-01-10T05:42:14.745Z,7.05
2023-01-10T05:44:43.925Z,3.22
2023-01-10T05:47:13.337Z,3.42
2023-01-10T05:49:44.029Z,5.60
2023-01-10T05:52:13.165Z,3.65
2023-01-10T05:54:42.702Z,3.03
2023-01-10T05:57:11.904Z,4.07
2023-01-10T05:59:40.994Z,4.60
2023-01-10T06:02:10.363Z,3.83
2023-01-10T06:04:39.552Z,4.13
2023-01-10T06:07:10.315Z,4.43
2023-01-10T06:09:39.584Z,3.92
2023-01-10T06:12:08.871Z,4.72
2023-01-10T06:14:40.650Z,4.40
2023-01-10T06:17:10.661Z,4.70
2023-01-10T06:19:39.870Z,3.17
2023-01-10T06:22:10.524Z,7.53
2023-01-10T06:24:39.774Z,3.75
2023-01-10T06:27:09.118Z,4.78
2023-01-10T06:29:38.280Z,5.30
2023-01-10T06:32:07.636Z,5.78
2023-01-10T06:34:36.875Z,4.97
2023-01-10T06:37:07.356Z,4.43
2023-01-10T06:39:38.118Z,4.18
2023-01-10T06:42:07.543Z,3.97
2023-01-10T06:44:36.875Z,3.55
2023-01-10T06:47:06.266Z,5.45
2023-01-10T06:49:35.554Z,3.08
2023-01-10T06:52:04.848Z,4.50
2023-01-10T06:54:35.091Z,3.78
2023-01-10T06:57:06.519Z,3.67
2023-01-10T06:59:36.878Z,2.22
2023-01-10T07:02:06.155Z,3.17
2023-01-10T07:04:35.628Z,3.47
2023-01-10T07:07:05.404Z,4.38
2023-01-10T07:09:34.618Z,4.43
2023-01-10T07:12:05.479Z,2.00
2023-01-10T07:14:34.663Z,5.43
2023-01-10T07:17:03.770Z,3.90
2023-01-10T07:19:32.947Z,5.18
2023-01-10T07:22:02.024Z,5.53
2023-01-10T07:24:31.155Z,5.28
2023-01-10T07:27:00.241Z,3.90
2023-01-10T07:29:31.012Z,5.95
2023-01-10T07:32:00.158Z,4.85
2023-01-10T07:34:29.354Z,7.15
2023-01-10T07:36:58.441Z,4.32
2023-01-10T07:39:27.636Z,5.88
2023-01-10T07:41:56.759Z,2.78
2023-01-10T07:44:25.941Z,4.15
2023-01-10T07:46:56.616Z,6.13
2023-01-10T07:49:25.758Z,4.07
2023-01-10T07:51:55.223Z,4.50
2023-01-10T07:54:24.422Z,5.70
2023-01-10T07:56:53.591Z,3.83
2023-01-10T07:59:22.701Z,3.20
2023-01-10T08:01:51.783Z,4.75
2023-01-10T08:04:22.738Z,5.20
2023-01-10T08:06:52.111Z,4.03
2023-01-10T08:09:21.271Z,8.55
2023-01-10T08:11:50.381Z,5.65
2023-01-10T08:14:19.571Z,7.82
2023-01-10T08:16:48.686Z,6.60
2023-01-10T08:19:18.907Z,3.17
2023-01-10T08:21:49.937Z,5.00
2023-01-10T08:24:19.024Z,5.82
2023-01-10T08:26:48.138Z,5.93
2023-01-10T08:29:23.215Z,5.13
2023-01-10T08:31:52.372Z,5.30
2023-01-10T08:34:21.741Z,4.95
2023-01-10T08:36:53.957Z,5.68
2023-01-10T08:39:26.888Z,5.50
2023-01-10T08:41:56.271Z,6.63
2023-01-10T08:44:27.049Z,2.67
2023-01-10T08:46:57.225Z,5.88
2023-01-10T08:49:26.405Z,7.18
2023-01-10T08:51:57.085Z,5.07
2023-01-10T08:54:26.378Z,7.93
2023-01-10T08:56:55.472Z,5.18
2023-01-10T08:59:24.620Z,5.80
2023-01-10T09:01:53.743Z,5.78
2023-01-10T09:04:22.990Z,5.00
2023-01-10T09:06:52.113Z,7.20
2023-01-10T09:09:22.944Z,6.47
2023-01-10T09:11:52.092Z,7.05
2023-01-10T09:14:21.189Z,7.07
2023-01-10T09:16:52.131Z,6.35
2023-01-10T09:19:21.430Z,5.25
2023-01-10T09:21:50.480Z,5.95
2023-01-10T09:24:20.460Z,5.28
2023-01-10T09:26:51.046Z,5.70
2023-01-10T09:29:20.121Z,7.10
2023-01-10T09:31:49.211Z,5.80
2023-01-10T09:34:18.383Z,11.45
2023-01-10T09:36:47.856Z,9.10
2023-01-10T09:39:16.959Z,7.28
2023-01-10T09:41:59.119Z,9.18
2023-01-10T09:44:42.491Z,4.68
2023-01-10T09:47:22.963Z,9.23
2023-01-10T09:50:06.919Z,5.30
2023-01-10T09:52:40.381Z,9.18
2023-01-10T09:55:20.873Z,7.45
2023-01-10T09:57:53.346Z,5.53
2023-01-10T10:00:26.523Z,8.52
2023-01-10T10:02:57.312Z,8.52
2023-01-10T10:05:29.360Z,12.88
2023-01-10T10:08:00.722Z,8.10
2023-01-10T10:10:37.356Z,8.50
2023-01-10T10:13:26.966Z,6.82
2023-01-10T10:16:07.135Z,10.77
2023-01-10T10:18:45.544Z,11.40
2023-01-10T10:21:25.624Z,8.68
2023-01-10T10:24:21.562Z,10.43
2023-01-10T10:26:59.054Z,7.57
2023-01-10T10:29:53.147Z,11.52
2023-01-10T10:32:41.078Z,11.75
2023-01-10T10:35:17.200Z,12.15
2023-01-10T10:37:50.213Z,14.95
2023-01-10T10:40:22.213Z,14.45
2023-01-10T10:42:54.115Z,10.65
2023-01-10T10:45:35.718Z,14.95
2023-01-10T10:48:14.817Z,13.02
2023-01-10T10:50:52.367Z,14.82
2023-01-10T10:53:21.659Z,16.40
2023-01-10T10:55:51.207Z,14.93
2023-01-10T10:58:20.728Z,8.82
2023-01-10T11:00:51.360Z,10.65
2023-01-10T11:03:42.721Z,9.90
2023-01-10T11:06:12.476Z,10.90
2023-01-10T11:08:43.878Z,9.75
2023-01-10T11:11:28.761Z,12.80
2023-01-10T11:14:00.056Z,11.73
2023-01-10T11:16:33.299Z,14.65
2023-01-10T11:19:22.562Z,15.32
2023-01-10T11:21:57.365Z,15.07
2023-01-10T11:24:30.501Z,14.93
2023-01-10T11:27:01.781Z,11.70
2023-01-10T11:29:41.308Z,9.13
2023-01-10T11:32:15.772Z,8.43
2023-01-10T11:34:50.807Z,11.07
2023-01-10T11:37:25.613Z,11.60
2023-01-10T11:40:16.973Z,9.52
2023-01-10T11:42:46.830Z,12.15
2023-01-10T11:45:32.328Z,9.20
2023-01-10T11:48:26.970Z,10.50
2023-01-10T11:51:03.609Z,10.10
2023-01-10T11:53:43.612Z,11.90
2023-01-10T11:56:16.332Z,11.32
2023-01-10T11:58:45.839Z,6.70
2023-01-10T12:01:32.296Z,11.95
2023-01-10T12:04:03.365Z,16.17
2023-01-10T12:06:33.711Z,12.45
2023-01-10T12:09:02.995Z,12.05
2023-01-10T12:11:36.219Z,14.20
2023-01-10T12:14:20.335Z,15.85
2023-01-10T12:16:49.742Z,10.60
2023-01-10T12:19:20.529Z,11.45
2023-01-10T12:21:50.726Z,14.82
2023-01-10T12:24:25.220Z,9.95
2023-01-10T12:26:55.332Z,11.35
2023-01-10T12:29:28.575Z,7.70
2023-01-10T12:32:00.263Z,14.32
2023-01-10T12:34:41.080Z,13.23
2023-01-10T12:37:18.672Z,15.25
2023-01-10T12:39:51.050Z,13.88
2023-01-10T12:42:48.803Z,14.27
2023-01-10T12:45:23.203Z,13.95
2023-01-10T12:48:01.366Z,7.67
2023-01-10T12:50:38.980Z,15.27
2023-01-10T12:53:15.488Z,13.30
2023-01-10T12:58:50.943Z,11.87
2023-01-10T13:01:30.649Z,13.90
2023-01-10T13:04:07.277Z,11.68
2023-01-10T13:06:41.488Z,10.88
2023-01-10T13:09:16.453Z,16.23
2023-01-10T13:11:54.827Z,9.77
2023-01-10T13:14:29.526Z,9.93
2023-01-10T13:17:05.073Z,9.07
2023-01-10T13:19:34.252Z,13.75
2023-01-10T13:22:23.701Z,12.57
2023-01-10T13:25:01.089Z,8.52
2023-01-10T13:27:34.217Z,7.53
2023-01-10T13:30:05.327Z,11.25
2023-01-10T13:32:41.818Z,11.52
2023-01-10T13:35:18.105Z,17.33
2023-01-10T13:37:56.227Z,17.20
2023-01-10T13:40:28.735Z,10.73
2023-01-10T13:43:35.406Z,10.82
2023-01-10T13:46:36.168Z,10.50
2023-01-10T13:49:50.507Z,6.95
2023-01-10T13:52:37.649Z,7.78
2023-01-10T13:55:54.030Z,12.68
2023-01-10T13:59:18.651Z,10.93
2023-01-10T14:02:10.577Z,10.98
2023-01-10T14:04:43.194Z,9.80
2023-01-10T14:07:25.329Z,10.48
2023-01-10T14:10:00.207Z,10.18
2023-01-10T14:12:36.037Z,14.13
2023-01-10T14:15:22.691Z,11.65
2023-01-10T14:17:59.669Z,8.48
2023-01-10T14:20:30.519Z,10.25
2023-01-10T14:23:08.252Z,10.63
2023-01-10T14:25:39.326Z,10.63
2023-01-10T14:28:24.529Z,12.82
2023-01-10T14:31:05.659Z,10.27
2023-01-10T14:33:36.194Z,10.65
2023-01-10T14:36:10.813Z,7.72
2023-01-10T14:38:41.148Z,7.65
2023-01-10T14:41:18.535Z,9.52
2023-01-10T14:43:55.987Z,13.15
2023-01-10T14:46:31.758Z,9.05
2023-01-10T14:49:01.475Z,5.35
2023-01-10T14:51:31.971Z,9.00
2023-01-10T14:54:02.880Z,9.15
2023-01-10T14:56:39.187Z,9.52
2023-01-10T14:59:26.368Z,8.15
2023-01-10T15:01:58.297Z,9.07
2023-01-10T15:04:30.419Z,5.25
2023-01-10T15:07:03.068Z,7.80
2023-01-10T15:09:33.819Z,9.00
2023-01-10T15:12:05.879Z,8.32
2023-01-10T15:14:38.728Z,12.73
2023-01-10T15:17:10.253Z,12.90
2023-01-10T15:19:41.636Z,5.75
2023-01-10T15:22:26.245Z,5.75
2023-01-10T15:25:04.204Z,8.90
2023-01-10T15:27:34.349Z,6.45
2023-01-10T15:30:11.423Z,6.60
2023-01-10T15:32:42.107Z,6.85
2023-01-10T15:35:20.216Z,7.85
2023-01-10T15:37:54.269Z,5.65
2023-01-10T15:40:25.743Z,10.50
2023-01-10T15:43:27.804Z,7.32
2023-01-10T15:46:00.168Z,8.65
2023-01-10T15:48:34.595Z,9.75
2023-01-10T15:51:14.962Z,6.90
2023-01-10T15:53:57.924Z,6.05
2023-01-10T15:56:30.496Z,6.53
2023-01-10T15:59:00.886Z,7.10
2023-01-10T16:01:33.003Z,3.83
2023-01-10T16:04:27.809Z,7.63
2023-01-10T16:09:36.709Z,5.18
2023-01-10T16:12:22.839Z,6.35
2023-01-10T16:14:51.942Z,4.95
2023-01-10T16:17:22.477Z,2.78
2023-01-10T16:19:53.277Z,6.60
2023-01-10T16:22:22.638Z,6.95
2023-01-10T16:24:53.235Z,6.85
2023-01-10T16:27:22.375Z,5.53
2023-01-10T16:29:52.331Z,5.75
2023-01-10T16:32:22.956Z,6.40
2023-01-10T16:34:52.077Z,5.47
2023-01-10T16:37:21.163Z,4.70
2023-01-10T16:39:50.290Z,5.53
2023-01-10T16:42:36.280Z,6.90
2023-01-10T16:45:05.600Z,5.10
2023-01-10T16:47:36.180Z,3.15
2023-01-10T16:50:05.652Z,6.15
2023-01-10T16:52:34.845Z,4.47
2023-01-10T16:55:03.988Z,2.88
2023-01-10T16:57:33.201Z,5.93
2023-01-10T17:00:02.339Z,3.92
2023-01-10T17:02:31.723Z,7.05
2023-01-10T17:05:02.431Z,7.78
2023-01-10T17:07:31.584Z,3.92
2023-01-10T17:10:00.854Z,3.33
2023-01-10T17:12:34.679Z,5.15
2023-01-10T17:15:05.356Z,6.03
2023-01-10T17:17:37.804Z,5.05
2023-01-10T17:20:09.826Z,4.32
2023-01-10T17:22:38.995Z,3.97
2023-01-10T17:25:09.459Z,4.88
2023-01-10T17:27:38.564Z,5.05
2023-01-10T17:30:08.711Z,7.15
2023-01-10T17:32:37.932Z,4.20
2023-01-10T17:35:09.826Z,4.93
2023-01-10T17:37:38.934Z,3.30
2023-01-10T17:40:09.298Z,5.43
2023-01-10T17:42:38.449Z,4.10
2023-01-10T17:45:08.320Z,6.18
2023-01-10T17:47:37.472Z,6.05
2023-01-10T17:50:08.947Z,3.35
2023-01-10T17:52:38.060Z,6.70
2023-01-10T17:55:10.574Z,4.55
2023-01-10T17:57:39.750Z,5.07
2023-01-10T18:00:10.279Z,3.08
2023-01-10T18:02:39.562Z,4.55
2023-01-10T18:05:11.097Z,2.70
2023-01-10T18:07:40.229Z,3.58
2023-01-10T18:10:10.535Z,3.15
2023-01-10T18:12:39.878Z,1.70
2023-01-10T18:15:10.244Z,4.05
2023-01-10T18:17:39.390Z,4.82
2023-01-10T18:20:11.987Z,4.40
2023-01-10T18:22:58.381Z,3.05
2023-01-10T18:25:29.330Z,2.45
2023-01-10T18:28:00.497Z,1.90
2023-01-10T18:30:29.665Z,2.80
2023-01-10T18:32:58.981Z,4.47
2023-01-10T18:35:30.643Z,4.20
2023-01-10T18:37:59.936Z,4.32
2023-01-10T18:40:29.100Z,2.83
2023-01-10T18:42:58.947Z,0.75
2023-01-10T18:45:30.887Z,2.60
2023-01-10T18:48:00.160Z,2.25
2023-01-10T18:50:30.820Z,1.70
2023-01-10T18:53:01.325Z,1.88
2023-01-10T18:55:30.428Z,2.15
2023-01-10T18:57:59.627Z,3.60
2023-01-10T19:00:28.993Z,1.58
2023-01-10T19:02:59.949Z,2.17
2023-01-10T19:05:30.571Z,2.42
2023-01-10T19:08:00.841Z,2.47
2023-01-10T19:10:37.355Z,2.10
2023-01-10T19:13:14.254Z,2.72
2023-01-10T19:15:43.674Z,1.98
2023-01-10T19:18:13.121Z,2.63
2023-01-10T19:20:43.973Z,2.53
2023-01-10T19:23:13.232Z,3.17
2023-01-10T19:25:42.427Z,2.55
2023-01-10T19:28:11.563Z,1.95
2023-01-10T19:30:41.538Z,4.18
2023-01-10T19:33:10.960Z,1.08
2023-01-10T19:35:44.044Z,2.72
2023-01-10T19:38:13.429Z,1.25
2023-01-10T19:40:42.730Z,1.85
2023-01-10T19:43:12.016Z,2.10
2023-01-10T19:45:43.202Z,1.92
2023-01-10T19:48:12.492Z,2.72
2023-01-10T19:50:43.318Z,2.85
2023-01-10T19:53:12.600Z,2.17
2023-01-10T19:55:41.961Z,2.38
2023-01-10T19:58:11.236Z,1.17
2023-01-10T20:00:40.522Z,1.65
2023-01-10T20:03:09.745Z,1.38
2023-01-10T20:05:39.854Z,1.90
2023-01-10T20:08:10.581Z,0.88
2023-01-10T20:10:39.829Z,1.70
2023-01-10T20:13:10.361Z,1.75
2023-01-10T20:15:39.748Z,2.47
2023-01-10T20:18:09.118Z,1.42
2023-01-10T20:20:40.676Z,2.75
2023-01-10T20:23:12.696Z,1.92
2023-01-10T20:25:41.908Z,3.75
2023-01-10T20:28:11.222Z,1.42
2023-01-10T20:30:40.609Z,1.52
2023-01-10T20:33:09.829Z,3.22
2023-01-10T20:35:40.776Z,2.08
2023-01-10T20:38:11.581Z,2.08
2023-01-10T20:40:42.821Z,2.83
2023-01-10T20:43:12.127Z,1.90
2023-01-10T20:45:41.445Z,1.45
2023-01-10T20:48:11.181Z,2.72
2023-01-10T20:50:43.919Z,2.08
2023-01-10T20:53:16.246Z,2.40
2023-01-10T20:55:50.854Z,4.28
2023-01-10T20:58:28.258Z,2.97
2023-01-10T21:00:57.501Z,2.35
2023-01-10T21:03:27.046Z,2.50
2023-01-10T21:05:58.948Z,2.88
2023-01-10T21:08:30.945Z,2.33
2023-01-10T21:11:00.331Z,2.70
2023-01-10T21:13:29.730Z,2.03
2023-01-10T21:16:00.378Z,2.03
2023-01-10T21:18:33.558Z,1.17
2023-01-10T21:21:03.371Z,3.40
2023-01-10T21:23:34.099Z,2.25
2023-01-10T21:26:04.833Z,2.63
2023-01-10T21:28:35.747Z,3.00
2023-01-10T21:31:05.099Z,3.38
2023-01-10T21:33:34.662Z,2.22
2023-01-10T21:36:03.903Z,2.17
2023-01-10T21:38:36.652Z,2.17
2023-01-10T21:41:10.509Z,3.85
2023-01-10T21:43:44.743Z,3.03
2023-01-10T21:46:14.238Z,3.07
2023-01-10T21:48:43.442Z,1.95
2023-01-10T21:51:12.670Z,1.88
2023-01-10T21:53:43.561Z,1.75
2023-01-10T21:56:13.064Z,2.97
2023-01-10T21:58:42.332Z,1.25
2023-01-10T22:01:11.608Z,1.35
2023-01-10T22:03:40.949Z,1.88
2023-01-10T22:06:10.559Z,2.50
2023-01-10T22:08:39.782Z,1.42
2023-01-10T22:11:11.147Z,4.05
2023-01-10T22:13:40.839Z,3.72
2023-01-10T22:16:10.510Z,3.33
2023-01-10T22:18:39.854Z,2.95
2023-01-10T22:21:09.135Z,1.48
2023-01-10T22:23:38.415Z,4.10
2023-01-10T22:26:11.886Z,2.55
2023-01-10T22:28:41.253Z,2.08
2023-01-10T22:31:10.933Z,2.45
2023-01-10T22:33:40.295Z,2.55
2023-01-10T22:36:12.040Z,0.95
2023-01-10T22:38:42.073Z,1.10
2023-01-10T22:41:14.607Z,2.63
2023-01-10T22:43:43.875Z,1.08
2023-01-10T22:46:16.170Z,2.30
2023-01-10T22:48:46.008Z,1.88
2023-01-10T22:51:15.826Z,1.75
2023-01-10T22:53:45.259Z,2.70
2023-01-10T22:56:15.929Z,1.55
2023-01-10T22:58:48.507Z,1.30
2023-01-10T23:01:19.016Z,1.17
2023-01-10T23:03:48.482Z,1.38
2023-01-10T23:06:18.847Z,1.92
2023-01-10T23:08:48.662Z,1.65
2023-01-10T23:11:21.506Z,2.42
2023-01-10T23:13:51.607Z,3.22
2023-01-10T23:16:22.625Z,2.33
2023-01-10T23:18:52.203Z,3.78
2023-01-10T23:21:21.455Z,3.20
2023-01-10T23:23:50.758Z,3.53
2023-01-10T23:26:21.554Z,3.25
2023-01-10T23:28:52.853Z,1.75
2023-01-10T23:31:24.158Z,5.15
2023-01-10T23:33:53.585Z,4.47
2023-01-10T23:36:24.165Z,3.83
2023-01-10T23:38:53.448Z,5.43
2023-01-10T23:41:24.504Z,7.70
2023-01-10T23:43:54.008Z,5.63
2023-01-10T23:46:23.301Z,8.13
2023-01-10T23:48:52.669Z,8.88
2023-01-10T23:51:21.949Z,3.60
2023-01-10T23:53:51.250Z,3.95
2023-01-10T23:56:20.704Z,4.95
2023-01-10T23:58:54.851Z,4.80
